Time;durP1;ratioP1;P1;durP2;ratioP2;P2;SDS_P1;SDS_P2;PMS_P1;PMS_P2;Temp;Humidity;BMP_temperature;BMP_pressure;BME280_temperature;BME280_humidity;BME280_pressure;Samples;Min_cycle;Max_cycle;Signal;HPM_P1;HPM_P2
2023/09/22 00:02:17;;;;;;;15.07;1.50;;;;;;;;;;5072051;28;20479;-82
2023/09/22 00:04:44;;;;;;;16.15;1.40;;;;;;;;;;5079099;28;20438;-82
2023/09/22 00:07:11;;;;;;;15.18;1.70;;;;;;;;;;5072047;28;20455;-81
2023/09/22 00:09:38;;;;;;;15.30;1.58;;;;;;;;;;5061017;28;20426;-82
2023/09/22 00:12:08;;;;;;;14.48;1.40;;;;;;;;;;5072326;28;20490;-83
2023/09/22 00:14:36;;;;;;;14.88;1.70;;;;;;;;;;5071241;28;20406;-82
2023/09/22 00:17:03;;;;;;;14.80;1.95;;;;;;;;;;5070651;28;20414;-83
2023/09/22 00:19:31;;;;;;;15.70;1.40;;;;;;;;;;5073591;28;20427;-82
2023/09/22 00:21:57;;;;;;;15.95;1.70;;;;;;;;;;5068198;28;20411;-84
2023/09/22 00:24:24;;;;;;;15.70;2.20;;;;;;;;;;5069512;28;20422;-84
2023/09/22 00:26:50;;;;;;;14.45;1.40;;;;;;;;;;5081537;28;20868;-81
2023/09/22 00:29:17;;;;;;;14.55;1.60;;;;;;;;;;5056594;28;20412;-81
2023/09/22 00:31:45;;;;;;;14.90;1.50;;;;;;;;;;5068100;28;20452;-82
2023/09/22 00:34:12;;;;;;;15.95;1.67;;;;;;;;;;5070601;28;20424;-81
2023/09/22 00:36:38;;;;;;;15.15;1.60;;;;;;;;;;5069442;28;20428;-83
2023/09/22 00:39:05;;;;;;;15.45;1.80;;;;;;;;;;5077152;28;20853;-82
2023/09/22 00:41:32;;;;;;;14.85;1.50;;;;;;;;;;5072285;28;20461;-81
2023/09/22 00:43:58;;;;;;;14.70;1.70;;;;;;;;;;5071145;28;20425;-81
2023/09/22 00:46:25;;;;;;;14.98;1.60;;;;;;;;;;5070391;28;20419;-82
2023/09/22 00:48:56;;;;;;;14.68;1.60;;;;;;;;;;5071891;28;20900;-82
2023/09/22 00:51:23;;;;;;;14.60;1.60;;;;;;;;;;5068524;28;20945;-81
2023/09/22 00:53:50;;;;;;;15.30;1.65;;;;;;;;;;5076454;28;20409;-81
2023/09/22 00:56:19;;;;;;;14.60;1.60;;;;;;;;;;5062167;28;20418;-82
2023/09/22 00:58:46;;;;;;;15.20;1.80;;;;;;;;;;5066640;28;20834;-83
2023/09/22 01:01:15;;;;;;;14.70;1.70;;;;;;;;;;5058732;28;20411;-83
2023/09/22 01:03:42;;;;;;;16.30;1.90;;;;;;;;;;5071133;28;20766;-82
2023/09/22 01:06:10;;;;;;;15.25;1.80;;;;;;;;;;5079349;28;20411;-82
2023/09/22 01:08:37;;;;;;;15.10;2.10;;;;;;;;;;5058434;28;20424;-82
2023/09/22 01:11:04;;;;;;;14.70;1.60;;;;;;;;;;5069648;28;20993;-81
2023/09/22 01:13:31;;;;;;;14.70;1.63;;;;;;;;;;5079599;28;20408;-81
2023/09/22 01:15:57;;;;;;;15.23;2.00;;;;;;;;;;5079439;28;20475;-83
2023/09/22 01:18:25;;;;;;;15.95;2.20;;;;;;;;;;5077551;28;20411;-83
2023/09/22 01:20:57;;;;;;;15.10;2.20;;;;;;;;;;5078903;28;20401;-83
2023/09/22 01:23:25;;;;;;;16.52;2.10;;;;;;;;;;5086072;28;20500;-83
2023/09/22 01:25:51;;;;;;;15.43;1.88;;;;;;;;;;5090318;28;20809;-81
2023/09/22 01:28:18;;;;;;;15.98;2.22;;;;;;;;;;5085731;28;20415;-80
2023/09/22 01:30:44;;;;;;;15.20;1.80;;;;;;;;;;5082752;28;20448;-81
2023/09/22 01:33:11;;;;;;;15.43;2.03;;;;;;;;;;5077505;28;20437;-81
2023/09/22 01:35:38;;;;;;;15.30;1.90;;;;;;;;;;5084673;28;20482;-80
2023/09/22 01:38:10;;;;;;;15.00;1.60;;;;;;;;;;5085733;28;20410;-81
2023/09/22 01:40:38;;;;;;;16.00;1.80;;;;;;;;;;5081752;28;20733;-81
2023/09/22 01:43:05;;;;;;;16.80;2.10;;;;;;;;;;5060918;28;20430;-83
2023/09/22 01:45:31;;;;;;;19.27;2.03;;;;;;;;;;5075747;28;20510;-84
2023/09/22 01:47:58;;;;;;;16.70;2.10;;;;;;;;;;5078292;28;20405;-81
2023/09/22 01:50:25;;;;;;;16.00;1.95;;;;;;;;;;5077999;28;20432;-84
2023/09/22 01:52:52;;;;;;;14.90;1.58;;;;;;;;;;5086918;28;20838;-84
2023/09/22 01:55:19;;;;;;;16.10;2.10;;;;;;;;;;5076428;28;20408;-82
2023/09/22 01:57:47;;;;;;;17.23;1.90;;;;;;;;;;5067857;28;20420;-84
2023/09/22 02:00:15;;;;;;;15.57;1.92;;;;;;;;;;5076912;28;20468;-84
2023/09/22 02:02:43;;;;;;;18.88;2.70;;;;;;;;;;5082770;28;20430;-82
2023/09/22 02:05:14;;;;;;;15.70;2.10;;;;;;;;;;5075485;28;20435;-82
2023/09/22 02:07:45;;;;;;;16.40;2.40;;;;;;;;;;5072417;28;20394;-83
2023/09/22 02:10:13;;;;;;;15.57;2.38;;;;;;;;;;5076094;28;20406;-81
2023/09/22 02:12:41;;;;;;;17.23;2.63;;;;;;;;;;5081844;28;20416;-82
2023/09/22 02:15:10;;;;;;;15.85;2.33;;;;;;;;;;5061296;28;20938;-82
2023/09/22 02:17:37;;;;;;;17.15;3.10;;;;;;;;;;5061578;28;20447;-83
2023/09/22 02:20:22;;;;;;;15.80;2.30;;;;;;;;;;5069028;28;20412;-81
2023/09/22 02:22:50;;;;;;;15.90;2.20;;;;;;;;;;5047397;28;20441;-82
2023/09/22 02:25:17;;;;;;;16.20;2.17;;;;;;;;;;5070951;28;20412;-83
2023/09/22 02:27:44;;;;;;;15.35;1.98;;;;;;;;;;5079946;28;21050;-81
2023/09/22 02:30:14;;;;;;;16.25;1.90;;;;;;;;;;5058376;28;20510;-82
2023/09/22 02:32:42;;;;;;;16.25;2.40;;;;;;;;;;5076576;28;20412;-83
2023/09/22 02:35:09;;;;;;;15.90;2.03;;;;;;;;;;5069071;28;20405;-83
2023/09/22 02:37:36;;;;;;;16.10;2.40;;;;;;;;;;5083686;28;20771;-83
2023/09/22 02:40:03;;;;;;;17.20;2.10;;;;;;;;;;5073197;28;20406;-84
2023/09/22 02:42:30;;;;;;;16.30;2.50;;;;;;;;;;5079244;28;20767;-82
2023/09/22 02:44:56;;;;;;;16.25;2.40;;;;;;;;;;5080270;28;20965;-82
2023/09/22 02:47:29;;;;;;;16.20;2.20;;;;;;;;;;5084340;28;20489;-82
2023/09/22 02:49:56;;;;;;;16.30;2.30;;;;;;;;;;5077504;28;20957;-84
2023/09/22 02:52:23;;;;;;;15.30;2.20;;;;;;;;;;5073638;28;20953;-83
2023/09/22 02:54:51;;;;;;;15.82;2.38;;;;;;;;;;5060925;28;20975;-83
2023/09/22 02:57:18;;;;;;;16.80;2.50;;;;;;;;;;5077695;28;20431;-82
2023/09/22 02:59:44;;;;;;;16.67;2.60;;;;;;;;;;5076262;28;20451;-82
2023/09/22 03:02:11;;;;;;;16.30;2.15;;;;;;;;;;5058257;28;20930;-83
2023/09/22 03:04:40;;;;;;;17.02;2.40;;;;;;;;;;5058239;28;20411;-83
2023/09/22 03:07:07;;;;;;;15.20;2.10;;;;;;;;;;5073371;28;20489;-83
2023/09/22 03:09:34;;;;;;;15.85;2.35;;;;;;;;;;5071122;28;20523;-84
2023/09/22 03:12:01;;;;;;;16.05;1.92;;;;;;;;;;5060303;28;20448;-83
2023/09/22 03:14:30;;;;;;;16.00;1.92;;;;;;;;;;5070602;28;20423;-81
2023/09/22 03:16:57;;;;;;;15.10;2.25;;;;;;;;;;5075542;28;20411;-82
2023/09/22 03:19:24;;;;;;;18.15;2.00;;;;;;;;;;5079754;28;20411;-83
2023/09/22 03:21:52;;;;;;;15.00;1.83;;;;;;;;;;5075050;28;20406;-81
2023/09/22 03:24:18;;;;;;;15.38;2.00;;;;;;;;;;5078744;28;20836;-82
2023/09/22 03:26:46;;;;;;;15.70;2.17;;;;;;;;;;5077231;28;20516;-83
2023/09/22 03:29:13;;;;;;;15.10;2.00;;;;;;;;;;5077394;28;20414;-82
2023/09/22 03:31:39;;;;;;;14.90;2.00;;;;;;;;;;5055174;28;20421;-82
2023/09/22 03:34:06;;;;;;;16.80;2.22;;;;;;;;;;5067480;28;20417;-82
2023/09/22 03:36:35;;;;;;;16.58;2.10;;;;;;;;;;5073986;28;20466;-83
2023/09/22 03:39:07;;;;;;;16.03;2.17;;;;;;;;;;5077330;28;20449;-83
2023/09/22 03:41:35;;;;;;;15.25;2.00;;;;;;;;;;5066283;28;20415;-83
2023/09/22 03:44:02;;;;;;;14.40;1.60;;;;;;;;;;5075987;28;20440;-83
2023/09/22 03:46:29;;;;;;;16.83;1.90;;;;;;;;;;5065630;28;20427;-83
2023/09/22 03:48:56;;;;;;;16.10;2.25;;;;;;;;;;5058745;28;20421;-83
2023/09/22 03:51:22;;;;;;;16.77;1.70;;;;;;;;;;5080602;28;20406;-83
2023/09/22 03:53:49;;;;;;;14.80;1.80;;;;;;;;;;5079176;28;20398;-83
2023/09/22 03:56:17;;;;;;;14.60;1.70;;;;;;;;;;5055814;28;20486;-83
2023/09/22 03:58:45;;;;;;;15.90;1.80;;;;;;;;;;5079481;28;20492;-82
2023/09/22 04:01:12;;;;;;;16.42;2.05;;;;;;;;;;5055912;28;20417;-82
2023/09/22 04:03:41;;;;;;;14.83;1.70;;;;;;;;;;5069340;28;20510;-82
2023/09/22 04:06:08;;;;;;;17.75;2.22;;;;;;;;;;5059315;28;20508;-82
2023/09/22 04:08:35;;;;;;;15.02;2.00;;;;;;;;;;5073607;28;20471;-81
2023/09/22 04:11:02;;;;;;;15.90;1.77;;;;;;;;;;5080019;28;20452;-83
2023/09/22 04:13:30;;;;;;;14.93;1.60;;;;;;;;;;5075891;28;20474;-81
2023/09/22 04:15:58;;;;;;;15.60;2.20;;;;;;;;;;5070102;28;20399;-82
2023/09/22 04:18:29;;;;;;;14.82;1.70;;;;;;;;;;5056334;28;20429;-82
2023/09/22 04:20:57;;;;;;;15.20;1.80;;;;;;;;;;5066151;28;20858;-82
2023/09/22 04:23:27;;;;;;;16.17;1.70;;;;;;;;;;5076894;28;20985;-82
2023/09/22 04:25:54;;;;;;;17.30;2.40;;;;;;;;;;5077279;28;20777;-82
2023/09/22 04:28:23;;;;;;;16.00;1.83;;;;;;;;;;5071163;28;20396;-81
2023/09/22 04:30:51;;;;;;;15.80;1.70;;;;;;;;;;5072066;28;20405;-80
2023/09/22 04:33:19;;;;;;;14.68;1.50;;;;;;;;;;5077566;28;20457;-79
2023/09/22 04:35:47;;;;;;;15.40;1.70;;;;;;;;;;5066760;28;21071;-81
2023/09/22 04:38:14;;;;;;;15.80;1.70;;;;;;;;;;5078753;28;20514;-81
2023/09/22 04:40:41;;;;;;;15.75;2.10;;;;;;;;;;5057077;28;20405;-82
2023/09/22 04:43:08;;;;;;;15.50;1.80;;;;;;;;;;5066040;28;20886;-81
2023/09/22 04:45:39;;;;;;;15.18;1.73;;;;;;;;;;5077540;28;20418;-82
2023/09/22 04:48:08;;;;;;;16.90;1.70;;;;;;;;;;5071331;28;20477;-83
2023/09/22 04:50:34;;;;;;;17.83;2.13;;;;;;;;;;5074510;28;20504;-83
2023/09/22 04:53:01;;;;;;;15.07;1.70;;;;;;;;;;5063054;28;20404;-83
2023/09/22 04:55:35;;;;;;;15.00;1.88;;;;;;;;;;5073718;28;20407;-83
2023/09/22 04:58:02;;;;;;;18.35;2.10;;;;;;;;;;5083579;28;20425;-82
2023/09/22 05:00:33;;;;;;;15.47;1.80;;;;;;;;;;5067535;28;20458;-82
2023/09/22 05:02:59;;;;;;;16.75;1.90;;;;;;;;;;5056912;28;20475;-82
2023/09/22 05:05:28;;;;;;;17.33;1.95;;;;;;;;;;5086545;28;20419;-83
2023/09/22 05:07:55;;;;;;;15.80;2.40;;;;;;;;;;5072150;28;20897;-81
2023/09/22 05:10:22;;;;;;;17.48;2.40;;;;;;;;;;5070423;28;20577;-84
2023/09/22 05:12:52;;;;;;;15.65;2.17;;;;;;;;;;5060820;28;20902;-81
2023/09/22 05:15:19;;;;;;;15.85;2.20;;;;;;;;;;5053103;28;20409;-80
2023/09/22 05:17:46;;;;;;;14.90;1.88;;;;;;;;;;5077892;28;20465;-82
2023/09/22 05:20:14;;;;;;;17.00;1.92;;;;;;;;;;5077811;28;20515;-82
2023/09/22 05:22:43;;;;;;;15.05;2.08;;;;;;;;;;5074997;28;20406;-80
2023/09/22 05:25:10;;;;;;;15.10;2.10;;;;;;;;;;5083168;28;20435;-81
2023/09/22 05:27:37;;;;;;;15.38;2.00;;;;;;;;;;5070266;28;20409;-80
2023/09/22 05:30:06;;;;;;;16.98;1.80;;;;;;;;;;5077410;28;20407;-81
2023/09/22 05:32:34;;;;;;;16.70;1.92;;;;;;;;;;5062383;28;20404;-81
2023/09/22 05:35:00;;;;;;;15.70;1.90;;;;;;;;;;5068535;28;20457;-79
2023/09/22 05:37:27;;;;;;;16.17;2.20;;;;;;;;;;5087252;28;20414;-81
2023/09/22 05:39:55;;;;;;;18.40;2.40;;;;;;;;;;5071670;28;20447;-80
2023/09/22 05:42:22;;;;;;;18.42;2.30;;;;;;;;;;5075705;28;20419;-80
2023/09/22 05:44:49;;;;;;;16.40;2.30;;;;;;;;;;5080737;28;20409;-80
2023/09/22 05:47:16;;;;;;;15.98;2.20;;;;;;;;;;5077913;28;20403;-80
2023/09/22 05:49:42;;;;;;;14.93;1.90;;;;;;;;;;5080809;28;20486;-79
2023/09/22 05:52:09;;;;;;;16.50;2.00;;;;;;;;;;5071566;28;20440;-80
2023/09/22 05:54:35;;;;;;;15.70;2.00;;;;;;;;;;5087896;28;20872;-80
2023/09/22 05:57:04;;;;;;;16.53;2.00;;;;;;;;;;5084902;28;20438;-80
2023/09/22 05:59:31;;;;;;;15.60;2.05;;;;;;;;;;5076638;28;20513;-80
2023/09/22 06:01:59;;;;;;;15.35;1.80;;;;;;;;;;5070584;28;20402;-81
2023/09/22 06:04:26;;;;;;;14.90;1.83;;;;;;;;;;5075526;28;20471;-79
2023/09/22 06:06:54;;;;;;;15.30;1.75;;;;;;;;;;5079371;28;20416;-79
2023/09/22 06:09:21;;;;;;;15.50;2.00;;;;;;;;;;5069820;28;20493;-82
2023/09/22 06:11:49;;;;;;;15.63;1.80;;;;;;;;;;5074470;28;20410;-78
2023/09/22 06:14:17;;;;;;;15.60;1.70;;;;;;;;;;5078155;28;20460;-81
2023/09/22 06:16:44;;;;;;;16.25;1.90;;;;;;;;;;5070417;28;20962;-79
2023/09/22 06:19:10;;;;;;;16.45;1.70;;;;;;;;;;5073607;28;20424;-81
2023/09/22 06:21:40;;;;;;;14.32;1.58;;;;;;;;;;5074745;28;20413;-79
2023/09/22 06:24:07;;;;;;;14.40;1.40;;;;;;;;;;5079759;28;20491;-80
2023/09/22 06:26:34;;;;;;;15.07;1.90;;;;;;;;;;5075823;28;20504;-81
2023/09/22 06:29:01;;;;;;;16.10;2.00;;;;;;;;;;5062253;28;20455;-81
2023/09/22 06:31:28;;;;;;;15.43;1.83;;;;;;;;;;5079592;28;20439;-82
2023/09/22 06:33:55;;;;;;;14.60;1.50;;;;;;;;;;5070270;28;20408;-80
2023/09/22 06:36:22;;;;;;;15.40;1.60;;;;;;;;;;5076331;28;20422;-79
2023/09/22 06:38:50;;;;;;;15.43;1.60;;;;;;;;;;5075901;28;20887;-81
2023/09/22 06:41:20;;;;;;;15.38;1.50;;;;;;;;;;5062582;28;20431;-81
2023/09/22 06:43:47;;;;;;;14.70;1.53;;;;;;;;;;5080936;28;20429;-80
2023/09/22 06:46:23;;;;;;;15.90;1.70;;;;;;;;;;5074736;28;20402;-82
2023/09/22 06:48:51;;;;;;;15.30;1.60;;;;;;;;;;5073544;28;20735;-79
2023/09/22 06:51:18;;;;;;;15.68;1.52;;;;;;;;;;5060803;28;20949;-79
2023/09/22 06:53:47;;;;;;;14.73;1.50;;;;;;;;;;5068569;28;20546;-81
2023/09/22 06:56:17;;;;;;;15.15;1.63;;;;;;;;;;5076881;28;20820;-81
2023/09/22 06:58:47;;;;;;;15.95;1.60;;;;;;;;;;5066549;28;20459;-82
2023/09/22 07:01:15;;;;;;;15.48;1.70;;;;;;;;;;5074912;28;20407;-80
2023/09/22 07:03:42;;;;;;;14.65;1.50;;;;;;;;;;5073046;28;20487;-81
2023/09/22 07:06:14;;;;;;;15.43;1.67;;;;;;;;;;5076817;28;20432;-80
2023/09/22 07:08:43;;;;;;;14.97;1.80;;;;;;;;;;5072971;28;20420;-80
2023/09/22 07:11:10;;;;;;;14.93;1.67;;;;;;;;;;5087046;28;20410;-80
2023/09/22 07:13:37;;;;;;;16.30;2.10;;;;;;;;;;5075781;28;20518;-80
2023/09/22 07:16:04;;;;;;;15.15;1.50;;;;;;;;;;5072154;28;20406;-81
2023/09/22 07:18:31;;;;;;;17.63;1.47;;;;;;;;;;5074329;28;20419;-81
2023/09/22 07:20:57;;;;;;;15.67;1.80;;;;;;;;;;5079711;28;20761;-81
2023/09/22 07:23:25;;;;;;;15.20;1.60;;;;;;;;;;5078979;28;20712;-81
2023/09/22 07:25:59;;;;;;;15.75;2.00;;;;;;;;;;5069934;28;20441;-79
2023/09/22 07:28:26;;;;;;;15.00;1.60;;;;;;;;;;5073871;28;20521;-81
2023/09/22 07:30:53;;;;;;;17.25;1.90;;;;;;;;;;5077185;28;20400;-81
2023/09/22 07:33:20;;;;;;;16.58;1.90;;;;;;;;;;5080029;28;20864;-80
2023/09/22 07:35:50;;;;;;;15.13;1.65;;;;;;;;;;5080737;28;20445;-80
2023/09/22 07:38:17;;;;;;;16.40;1.27;;;;;;;;;;5062793;28;20898;-81
2023/09/22 07:40:45;;;;;;;14.75;1.65;;;;;;;;;;5074591;28;20421;-79
2023/09/22 07:43:12;;;;;;;14.80;1.70;;;;;;;;;;5081526;28;20494;-81
2023/09/22 07:45:39;;;;;;;14.40;1.30;;;;;;;;;;5084163;28;20467;-80
2023/09/22 07:48:06;;;;;;;14.20;1.30;;;;;;;;;;5073206;28;20409;-80
2023/09/22 07:50:34;;;;;;;15.70;1.65;;;;;;;;;;5054355;28;20421;-80
2023/09/22 07:53:02;;;;;;;16.00;1.55;;;;;;;;;;5068332;28;20459;-79
2023/09/22 07:55:29;;;;;;;14.43;1.40;;;;;;;;;;5062706;28;20535;-82
2023/09/22 07:57:57;;;;;;;14.20;1.20;;;;;;;;;;5062370;28;20504;-81
2023/09/22 08:00:26;;;;;;;14.90;1.60;;;;;;;;;;5055328;28;20426;-79
2023/09/22 08:02:53;;;;;;;16.40;1.30;;;;;;;;;;5068856;28;20896;-81
2023/09/22 08:05:20;;;;;;;14.25;1.30;;;;;;;;;;5078873;28;21044;-78
2023/09/22 08:07:49;;;;;;;14.45;1.30;;;;;;;;;;5079049;28;20420;-79
2023/09/22 08:10:17;;;;;;;15.38;1.40;;;;;;;;;;5081966;28;20549;-79
2023/09/22 08:12:44;;;;;;;15.38;1.50;;;;;;;;;;5079897;28;20407;-77
2023/09/22 08:15:14;;;;;;;15.18;1.40;;;;;;;;;;5064599;28;20416;-78
2023/09/22 08:17:42;;;;;;;15.38;1.60;;;;;;;;;;5081124;28;20736;-79
2023/09/22 08:20:12;;;;;;;14.50;1.30;;;;;;;;;;5074578;28;20514;-81
2023/09/22 08:22:39;;;;;;;14.90;1.25;;;;;;;;;;5062500;28;20911;-83
2023/09/22 08:25:08;;;;;;;15.13;1.30;;;;;;;;;;5078350;28;20408;-79
2023/09/22 08:27:35;;;;;;;15.50;1.30;;;;;;;;;;5058633;28;20775;-81
2023/09/22 08:30:09;;;;;;;15.20;1.20;;;;;;;;;;5080091;28;20426;-77
2023/09/22 08:32:39;;;;;;;14.90;1.60;;;;;;;;;;5073285;28;20399;-80
2023/09/22 08:35:07;;;;;;;15.80;2.00;;;;;;;;;;5070313;28;20970;-79
2023/09/22 08:37:36;;;;;;;14.60;1.38;;;;;;;;;;5054673;28;20813;-79
2023/09/22 08:40:07;;;;;;;14.70;1.20;;;;;;;;;;5077269;28;20977;-82
2023/09/22 08:42:38;;;;;;;15.07;1.50;;;;;;;;;;5085954;28;20510;-81
2023/09/22 08:45:08;;;;;;;16.52;1.30;;;;;;;;;;5082868;28;20431;-82
2023/09/22 08:47:39;;;;;;;;;;;;;;;;;;5054755;28;20405;-81
2023/09/22 08:50:11;;;;;;;15.40;1.30;;;;;;;;;;5089917;28;20896;-81
2023/09/22 08:52:38;;;;;;;15.37;1.20;;;;;;;;;;5070561;28;20409;-79
2023/09/22 08:55:08;;;;;;;17.30;1.50;;;;;;;;;;5085951;28;20413;-79
2023/09/22 08:57:35;;;;;;;15.20;1.80;;;;;;;;;;5082080;28;21085;-83
2023/09/22 09:00:11;;;;;;;14.93;1.45;;;;;;;;;;5075422;28;20415;-77
2023/09/22 09:02:38;;;;;;;15.00;1.60;;;;;;;;;;5070709;28;20423;-80
2023/09/22 09:05:32;;;;;;;14.02;1.10;;;;;;;;;;5071180;28;20403;-78
2023/09/22 09:08:11;;;;;;;16.17;1.40;;;;;;;;;;5075792;28;20410;-79
2023/09/22 09:10:38;;;;;;;16.55;1.50;;;;;;;;;;5081349;28;20413;-78
2023/09/22 09:13:06;;;;;;;14.50;1.20;;;;;;;;;;5055811;28;20429;-81
2023/09/22 09:15:42;;;;;;;16.83;1.40;;;;;;;;;;5057232;28;20857;-83
2023/09/22 09:18:11;;;;;;;14.80;1.40;;;;;;;;;;5062207;28;20395;-80
2023/09/22 09:20:40;;;;;;;14.13;1.25;;;;;;;;;;5073015;28;20763;-82
2023/09/22 09:23:13;;;;;;;14.20;1.30;;;;;;;;;;5077378;28;20403;-80
2023/09/22 09:25:44;;;;;;;15.70;1.40;;;;;;;;;;5070697;28;20439;-81
2023/09/22 09:28:12;;;;;;;14.10;1.10;;;;;;;;;;5072722;28;20857;-81
2023/09/22 09:30:49;;;;;;;14.90;1.27;;;;;;;;;;5078467;28;20485;-81
2023/09/22 09:33:19;;;;;;;16.20;1.90;;;;;;;;;;5062976;28;20513;-80
2023/09/22 09:35:45;;;;;;;15.88;1.40;;;;;;;;;;5070296;28;20498;-79
2023/09/22 09:38:19;;;;;;;14.80;1.20;;;;;;;;;;5079757;28;20530;-78
2023/09/22 09:40:47;;;;;;;15.40;1.20;;;;;;;;;;5079021;28;20514;-79
2023/09/22 09:43:14;;;;;;;15.10;1.40;;;;;;;;;;5069847;28;20413;-81
2023/09/22 09:45:43;;;;;;;16.60;1.20;;;;;;;;;;5081402;28;20410;-83
2023/09/22 09:48:11;;;;;;;15.00;1.10;;;;;;;;;;5079537;28;20454;-83
2023/09/22 09:50:40;;;;;;;13.93;1.10;;;;;;;;;;5070479;28;20480;-80
2023/09/22 09:53:13;;;;;;;14.20;1.15;;;;;;;;;;5069871;28;21374;-81
2023/09/22 09:55:39;;;;;;;;;;;;;;;;;;5081926;28;20485;-80
2023/09/22 09:58:11;;;;;;;14.20;1.30;;;;;;;;;;5079717;28;20442;-80
2023/09/22 10:00:39;;;;;;;14.20;1.40;;;;;;;;;;5070454;28;20426;-79
2023/09/22 10:03:08;;;;;;;14.63;1.20;;;;;;;;;;5059882;28;20412;-79
2023/09/22 10:05:35;;;;;;;15.00;1.10;;;;;;;;;;5064365;28;20900;-83
2023/09/22 10:08:06;;;;;;;14.40;1.25;;;;;;;;;;5076836;28;20412;-80
2023/09/22 10:10:35;;;;;;;15.10;1.30;;;;;;;;;;5085472;28;20404;-81
2023/09/22 10:13:02;;;;;;;14.25;1.27;;;;;;;;;;5073360;28;20417;-79
2023/09/22 10:15:47;;;;;;;14.27;1.00;;;;;;;;;;5078082;28;20776;-83
2023/09/22 10:18:17;;;;;;;14.20;1.25;;;;;;;;;;5081441;28;20407;-80
2023/09/22 10:20:47;;;;;;;15.30;1.50;;;;;;;;;;5074318;28;20904;-81
2023/09/22 10:23:17;;;;;;;15.00;1.40;;;;;;;;;;5073200;28;20728;-80
2023/09/22 10:25:59;;;;;;;17.05;1.20;;;;;;;;;;5057029;28;20425;-81
2023/09/22 10:28:26;;;;;;;16.00;1.30;;;;;;;;;;5074221;28;20445;-80
2023/09/22 10:31:03;;;;;;;14.10;1.10;;;;;;;;;;5061589;28;20807;-80
2023/09/22 10:33:33;;;;;;;14.40;1.63;;;;;;;;;;5089011;28;20915;-80
2023/09/22 10:36:01;;;;;;;14.82;1.10;;;;;;;;;;5078176;28;20423;-80
2023/09/22 10:38:28;;;;;;;14.00;1.20;;;;;;;;;;5072639;28;20980;-80
2023/09/22 10:41:04;;;;;;;14.10;1.13;;;;;;;;;;5070912;28;20423;-81
2023/09/22 10:43:32;;;;;;;14.88;1.20;;;;;;;;;;5074927;28;20947;-79
2023/09/22 10:46:00;;;;;;;15.30;1.40;;;;;;;;;;5075288;28;20406;-81
2023/09/22 10:48:31;;;;;;;15.13;1.10;;;;;;;;;;5070281;28;20770;-81
2023/09/22 10:50:59;;;;;;;14.70;1.05;;;;;;;;;;5066144;28;20782;-82
2023/09/22 10:53:25;;;;;;;14.35;1.30;;;;;;;;;;5072441;28;20421;-81
2023/09/22 10:55:57;;;;;;;14.27;1.40;;;;;;;;;;5076134;28;20772;-81
2023/09/22 10:58:26;;;;;;;14.30;1.20;;;;;;;;;;5075887;28;20423;-81
2023/09/22 11:00:56;;;;;;;15.55;1.35;;;;;;;;;;5055736;28;20500;-79
2023/09/22 11:03:23;;;;;;;14.20;1.10;;;;;;;;;;5081175;28;20424;-81
2023/09/22 11:05:56;;;;;;;14.20;1.30;;;;;;;;;;5075087;28;20400;-80
2023/09/22 11:08:24;;;;;;;14.77;1.30;;;;;;;;;;5080297;28;20408;-81
2023/09/22 11:10:53;;;;;;;14.60;1.40;;;;;;;;;;5083249;28;20501;-81
2023/09/22 11:13:21;;;;;;;15.80;1.40;;;;;;;;;;5064622;28;20480;-80
2023/09/22 11:15:49;;;;;;;14.30;1.08;;;;;;;;;;5064039;28;20471;-81
2023/09/22 11:18:20;;;;;;;13.80;1.10;;;;;;;;;;5074350;28;20412;-80
2023/09/22 11:20:48;;;;;;;14.50;1.10;;;;;;;;;;5075792;28;20425;-81
2023/09/22 11:23:15;;;;;;;15.20;1.30;;;;;;;;;;5060646;28;20428;-84
2023/09/22 11:25:53;;;;;;;14.38;1.10;;;;;;;;;;5066698;28;20969;-80
2023/09/22 11:28:20;;;;;;;14.00;1.20;;;;;;;;;;5069399;28;20930;-81
2023/09/22 11:30:48;;;;;;;14.30;1.10;;;;;;;;;;5082119;28;20775;-78
2023/09/22 11:33:15;;;;;;;14.80;1.30;;;;;;;;;;5075787;28;20420;-79
2023/09/22 11:35:42;;;;;;;16.60;2.00;;;;;;;;;;5082264;28;20502;-77
2023/09/22 11:38:24;;;;;;;15.25;1.60;;;;;;;;;;5060411;28;20919;-81
2023/09/22 11:41:01;;;;;;;16.45;1.50;;;;;;;;;;5076545;28;20932;-78
2023/09/22 11:43:32;;;;;;;14.73;1.40;;;;;;;;;;5049175;28;20505;-77
2023/09/22 11:46:05;;;;;;;14.90;1.10;;;;;;;;;;5074519;28;20461;-79
2023/09/22 11:48:49;;;;;;;14.27;1.30;;;;;;;;;;5058913;28;20426;-79
2023/09/22 11:51:17;;;;;;;15.30;1.40;;;;;;;;;;5076373;28;20461;-79
2023/09/22 11:53:45;;;;;;;14.50;1.20;;;;;;;;;;5057962;28;20453;-79
2023/09/22 11:56:14;;;;;;;14.18;1.20;;;;;;;;;;5080798;28;20459;-81
2023/09/22 11:58:41;;;;;;;14.60;1.70;;;;;;;;;;5063775;28;20809;-81
2023/09/22 12:01:09;;;;;;;14.00;1.20;;;;;;;;;;5073269;28;20423;-79
2023/09/22 12:03:36;;;;;;;14.40;1.10;;;;;;;;;;5077144;28;20427;-82
2023/09/22 12:06:03;;;;;;;14.60;1.20;;;;;;;;;;5062566;28;20816;-81
2023/09/22 12:08:31;;;;;;;15.87;1.10;;;;;;;;;;5078637;28;20438;-82
2023/09/22 12:11:00;;;;;;;15.80;1.10;;;;;;;;;;5067220;28;20886;-76
2023/09/22 12:13:29;;;;;;;14.70;1.40;;;;;;;;;;5080706;28;20416;-81
2023/09/22 12:15:58;;;;;;;15.00;1.30;;;;;;;;;;5070470;28;20417;-80
2023/09/22 12:18:24;;;;;;;14.02;1.00;;;;;;;;;;5066459;28;20719;-80
2023/09/22 12:20:51;;;;;;;14.55;1.20;;;;;;;;;;5067014;28;20479;-77
2023/09/22 12:23:18;;;;;;;13.90;1.10;;;;;;;;;;5069388;28;20424;-79
2023/09/22 12:25:45;;;;;;;15.20;1.30;;;;;;;;;;5053294;28;20453;-80
2023/09/22 12:28:12;;;;;;;15.00;1.40;;;;;;;;;;5077232;28;20535;-78
2023/09/22 12:30:40;;;;;;;14.80;1.20;;;;;;;;;;5068068;28;20412;-81
2023/09/22 12:33:07;;;;;;;14.02;1.33;;;;;;;;;;5084404;28;20989;-80
2023/09/22 12:35:33;;;;;;;14.80;1.35;;;;;;;;;;5060784;28;20442;-80
2023/09/22 12:38:01;;;;;;;14.07;1.25;;;;;;;;;;5049189;28;20981;-79
2023/09/22 12:40:28;;;;;;;14.50;1.10;;;;;;;;;;5059267;28;20417;-80
2023/09/22 12:42:55;;;;;;;14.30;1.00;;;;;;;;;;5070001;28;20416;-81
2023/09/22 12:45:23;;;;;;;15.23;1.50;;;;;;;;;;5072566;28;21000;-79
2023/09/22 12:47:51;;;;;;;14.10;1.13;;;;;;;;;;5070847;28;20495;-77
2023/09/22 12:50:17;;;;;;;14.60;1.38;;;;;;;;;;5076453;28;20508;-75
2023/09/22 12:52:44;;;;;;;14.50;1.20;;;;;;;;;;5074569;28;20425;-78
2023/09/22 12:55:11;;;;;;;14.85;1.27;;;;;;;;;;5061016;28;20483;-82
2023/09/22 12:57:38;;;;;;;14.20;1.20;;;;;;;;;;5070383;28;20830;-78
2023/09/22 13:00:06;;;;;;;14.40;1.20;;;;;;;;;;5068340;28;20523;-81
2023/09/22 13:02:33;;;;;;;14.70;1.60;;;;;;;;;;5071836;28;20411;-79
2023/09/22 13:05:02;;;;;;;14.93;1.20;;;;;;;;;;5070793;28;20406;-79
2023/09/22 13:07:28;;;;;;;13.98;1.05;;;;;;;;;;5074468;28;20502;-80
2023/09/22 13:09:57;;;;;;;15.10;1.20;;;;;;;;;;5069926;28;20420;-81
2023/09/22 13:12:26;;;;;;;14.40;1.00;;;;;;;;;;5059341;28;20421;-80
2023/09/22 13:14:53;;;;;;;14.00;1.30;;;;;;;;;;5051997;28;20441;-81
2023/09/22 13:17:20;;;;;;;15.00;1.30;;;;;;;;;;5061581;28;20889;-81
2023/09/22 13:19:47;;;;;;;15.87;1.40;;;;;;;;;;5068470;28;20432;-81
2023/09/22 13:22:16;;;;;;;14.15;1.30;;;;;;;;;;5078999;28;20474;-79
2023/09/22 13:24:46;;;;;;;14.60;1.10;;;;;;;;;;5073162;28;20495;-80
2023/09/22 13:27:13;;;;;;;18.00;1.40;;;;;;;;;;5081917;28;20419;-80
2023/09/22 13:29:40;;;;;;;14.77;1.30;;;;;;;;;;5084409;28;20401;-82
2023/09/22 13:32:09;;;;;;;13.90;1.13;;;;;;;;;;5060299;28;20933;-81
2023/09/22 13:34:37;;;;;;;15.38;1.30;;;;;;;;;;5065455;28;20474;-81
2023/09/22 13:37:04;;;;;;;14.50;1.10;;;;;;;;;;5044311;28;20421;-81
2023/09/22 13:39:37;;;;;;;15.55;1.05;;;;;;;;;;5061116;28;20419;-81
2023/09/22 13:42:05;;;;;;;14.27;1.20;;;;;;;;;;5075549;28;20914;-80
2023/09/22 13:44:32;;;;;;;16.00;1.00;;;;;;;;;;5076814;28;20416;-79
2023/09/22 13:46:59;;;;;;;14.40;1.10;;;;;;;;;;5080167;28;20546;-80
2023/09/22 13:49:26;;;;;;;14.13;1.20;;;;;;;;;;5075128;28;20419;-81
2023/09/22 13:51:53;;;;;;;14.05;1.20;;;;;;;;;;5077597;28;20487;-77
2023/09/22 13:54:20;;;;;;;16.20;1.38;;;;;;;;;;5073684;28;20494;-80
2023/09/22 13:56:50;;;;;;;14.00;1.20;;;;;;;;;;5055696;28;20481;-78
2023/09/22 13:59:19;;;;;;;14.98;1.30;;;;;;;;;;5075972;28;20412;-81
2023/09/22 14:01:46;;;;;;;15.07;1.20;;;;;;;;;;5050159;28;20411;-78
2023/09/22 14:04:13;;;;;;;15.10;1.20;;;;;;;;;;5073483;28;20416;-82
2023/09/22 14:06:40;;;;;;;15.10;1.27;;;;;;;;;;5069849;28;20469;-81
2023/09/22 14:09:08;;;;;;;16.25;1.60;;;;;;;;;;5076791;28;20408;-78
2023/09/22 14:11:35;;;;;;;14.38;1.10;;;;;;;;;;5060764;28;20413;-80
2023/09/22 14:14:03;;;;;;;15.30;1.40;;;;;;;;;;5069107;28;20799;-81
2023/09/22 14:16:30;;;;;;;14.40;1.20;;;;;;;;;;5057046;28;20413;-80
2023/09/22 14:19:01;;;;;;;18.23;1.35;;;;;;;;;;5076530;28;20508;-80
2023/09/22 14:21:28;;;;;;;14.55;1.30;;;;;;;;;;5078501;28;20527;-79
2023/09/22 14:23:56;;;;;;;14.65;1.30;;;;;;;;;;5072672;28;20789;-79
2023/09/22 14:26:23;;;;;;;14.20;1.40;;;;;;;;;;5079807;28;20614;-80
2023/09/22 14:28:49;;;;;;;16.40;1.77;;;;;;;;;;5074841;28;20492;-80
2023/09/22 14:31:18;;;;;;;15.80;1.20;;;;;;;;;;5061113;28;20414;-81
2023/09/22 14:33:46;;;;;;;15.05;1.20;;;;;;;;;;5058328;28;20496;-79
2023/09/22 14:36:14;;;;;;;14.30;1.23;;;;;;;;;;5079488;28;20828;-80
2023/09/22 14:38:40;;;;;;;14.52;1.50;;;;;;;;;;5079842;28;20902;-81